Time;durP1;ratioP1;P1;durP2;ratioP2;P2;SDS_P1;SDS_P2;PMS_P1;PMS_P2;Temp;Humidity;BMP_temperature;BMP_pressure;BME280_temperature;BME280_humidity;BME280_pressure;Samples;Min_cycle;Max_cycle;Signal;HPM_P1;HPM_P2
2022/11/27 00:02:24;;;;;;;10.02;8.05;;;21.00;90.10;;;;;;6196239;28;89157;-66
2022/11/27 00:05:26;;;;;;;8.88;7.75;;;21.00;90.10;;;;;;6183931;28;89187;-66
2022/11/27 00:08:29;;;;;;;8.48;7.57;;;21.00;90.10;;;;;;6186110;28;89183;-65
2022/11/27 00:11:32;;;;;;;8.85;7.90;;;21.00;90.10;;;;;;6201137;28;89450;-67
2022/11/27 00:14:34;;;;;;;8.45;7.53;;;21.00;90.50;;;;;;6206282;28;89244;-66
2022/11/27 00:17:36;;;;;;;9.32;7.60;;;20.90;90.10;;;;;;6207139;28;88491;-66
2022/11/27 00:20:38;;;;;;;9.10;7.60;;;20.90;90.10;;;;;;6205948;28;89234;-66
2022/11/27 00:23:42;;;;;;;9.60;7.68;;;20.90;90.50;;;;;;6216719;28;89583;-66
2022/11/27 00:26:45;;;;;;;8.55;7.40;;;20.90;90.10;;;;;;6203867;28;90046;-66
2022/11/27 00:29:47;;;;;;;7.95;6.82;;;20.90;90.10;;;;;;6194447;28;89094;-66
2022/11/27 00:32:49;;;;;;;8.13;6.95;;;20.90;90.10;;;;;;6194601;28;89085;-66
2022/11/27 00:35:51;;;;;;;8.48;7.50;;;20.90;90.10;;;;;;6202531;28;90645;-66
2022/11/27 00:38:54;;;;;;;8.25;7.38;;;20.90;90.10;;;;;;6198241;28;89220;-66
2022/11/27 00:41:57;;;;;;;8.43;7.13;;;20.90;90.10;;;;;;6201148;28;89172;-66
2022/11/27 00:44:59;;;;;;;7.80;7.00;;;20.90;90.10;;;;;;6190479;28;89371;-66
2022/11/27 00:48:01;;;;;;;8.90;7.80;;;20.90;90.10;;;;;;6218216;28;87560;-66
2022/11/27 00:51:05;;;;;;;8.27;7.10;;;20.90;90.10;;;;;;6205419;28;89084;-66
2022/11/27 00:54:09;;;;;;;7.63;6.93;;;20.90;90.10;;;;;;6195125;28;88237;-66
2022/11/27 00:57:11;;;;;;;7.55;6.85;;;20.80;90.40;;;;;;6181627;28;90113;-66
2022/11/27 01:00:14;;;;;;;8.20;7.10;;;20.80;90.00;;;;;;6204528;28;89041;-66
2022/11/27 01:03:16;;;;;;;7.40;6.65;;;20.80;90.10;;;;;;6205083;28;89489;-66
2022/11/27 01:06:20;;;;;;;7.90;7.10;;;20.80;90.40;;;;;;6197613;28;89150;-65
2022/11/27 01:09:23;;;;;;;7.97;6.63;;;20.80;90.10;;;;;;6200997;28;89157;-66
2022/11/27 01:12:25;;;;;;;7.50;6.70;;;20.80;90.10;;;;;;6208316;28;89178;-66
2022/11/27 01:15:27;;;;;;;7.93;7.03;;;20.80;90.00;;;;;;6199860;28;89131;-66
2022/11/27 01:18:30;;;;;;;7.85;6.90;;;20.80;90.10;;;;;;6202528;28;88394;-66
2022/11/27 01:21:34;;;;;;;7.20;6.50;;;20.80;89.40;;;;;;6202108;28;90524;-66
2022/11/27 01:24:37;;;;;;;7.93;6.50;;;20.80;90.00;;;;;;6198519;28;89364;-66
2022/11/27 01:27:40;;;;;;;7.22;6.50;;;20.80;90.00;;;;;;6204442;28;91137;-66
2022/11/27 01:30:42;;;;;;;6.95;6.25;;;20.80;90.00;;;;;;6207967;28;88967;-66
2022/11/27 01:33:45;;;;;;;6.78;6.10;;;20.80;90.00;;;;;;6211381;28;89387;-68
2022/11/27 01:36:47;;;;;;;7.20;6.50;;;20.70;90.00;;;;;;6200974;28;89144;-66
2022/11/27 01:39:51;;;;;;;9.25;7.03;;;20.70;90.00;;;;;;6213674;28;88994;-67
2022/11/27 01:42:53;;;;;;;10.40;7.45;;;20.80;90.10;;;;;;6211245;28;89605;-66
2022/11/27 01:45:55;;;;;;;7.65;6.45;;;20.70;90.00;;;;;;6202239;28;89485;-66
2022/11/27 01:49:03;;;;;;;6.82;6.13;;;20.70;90.00;;;;;;6212563;28;88399;-66
2022/11/27 01:52:09;;;;;;;6.88;6.22;;;20.70;90.10;;;;;;6190049;28;89389;-66
2022/11/27 01:55:17;;;;;;;6.30;5.70;;;20.70;90.00;;;;;;6210790;28;89193;-66
2022/11/27 01:58:24;;;;;;;6.85;6.15;;;20.70;90.00;;;;;;6190565;28;88918;-66
2022/11/27 02:01:26;;;;;;;6.30;5.70;;;20.70;90.00;;;;;;6201738;28;89055;-66
2022/11/27 02:04:28;;;;;;;6.45;5.82;;;20.70;90.00;;;;;;6208247;28;89201;-66
2022/11/27 02:07:30;;;;;;;6.40;5.82;;;20.70;90.00;;;;;;6211786;28;89219;-65
2022/11/27 02:10:46;;;;;;;6.65;5.90;;;20.70;90.40;;;;;;6193291;28;89184;-66
2022/11/27 02:13:55;;;;;;;7.10;5.90;;;20.70;90.00;;;;;;6189478;28;89195;-66
2022/11/27 02:17:04;;;;;;;6.35;5.63;;;20.70;90.00;;;;;;6210377;28;89122;-66
2022/11/27 02:20:36;;;;;;;6.22;5.63;;;20.60;90.00;;;;;;6209774;28;88411;-67
2022/11/27 02:24:02;;;;;;;6.30;5.70;;;20.70;90.00;;;;;;6199620;28;89192;-66
2022/11/27 02:27:33;;;;;;;6.18;5.47;;;20.60;90.00;;;;;;6216173;28;88914;-66
2022/11/27 02:30:43;;;;;;;6.55;5.85;;;20.60;90.00;;;;;;6207363;28;90103;-66
2022/11/27 02:33:52;;;;;;;6.32;5.45;;;20.60;90.00;;;;;;6203919;28;89307;-66
2022/11/27 02:37:00;;;;;;;6.20;5.60;;;20.60;90.00;;;;;;6197796;28;88311;-66
2022/11/27 02:40:06;;;;;;;6.45;5.47;;;20.60;90.00;;;;;;6208043;28;89273;-66
2022/11/27 02:43:11;;;;;;;6.78;5.60;;;20.60;90.00;;;;;;6195184;28;89148;-66
2022/11/27 02:46:17;;;;;;;6.55;5.80;;;20.60;90.00;;;;;;6207616;28;89140;-66
2022/11/27 02:49:20;;;;;;;6.03;5.22;;;20.60;90.00;;;;;;6185062;28;88124;-66
2022/11/27 02:52:24;;;;;;;6.25;5.50;;;20.60;90.00;;;;;;6194913;28;88564;-66
2022/11/27 02:55:30;;;;;;;5.65;5.03;;;20.60;90.00;;;;;;6195909;28;89304;-66
2022/11/27 02:58:34;;;;;;;5.10;4.60;;;20.60;90.00;;;;;;6207401;28;88015;-66
2022/11/27 03:01:43;;;;;;;6.20;5.60;;;20.60;90.00;;;;;;6192004;28;90207;-66
2022/11/27 03:04:49;;;;;;;5.82;5.25;;;20.60;90.00;;;;;;6197925;28;89278;-66
2022/11/27 03:07:59;;;;;;;5.80;5.20;;;20.50;90.00;;;;;;6191124;28;89107;-66
2022/11/27 03:11:04;;;;;;;5.97;5.10;;;20.50;90.00;;;;;;6189125;28;89260;-67
2022/11/27 03:14:10;;;;;;;5.40;4.85;;;20.60;90.00;;;;;;6187549;28;89866;-67
2022/11/27 03:17:34;;;;;;;5.55;5.03;;;20.60;90.00;;;;;;6195968;28;88128;-66
2022/11/27 03:20:41;;;;;;;5.38;4.88;;;20.50;90.00;;;;;;6181378;28;87948;-67
2022/11/27 03:23:43;;;;;;;5.60;4.95;;;20.50;90.00;;;;;;6215262;28;88304;-67
2022/11/27 03:26:45;;;;;;;5.20;4.70;;;20.50;89.90;;;;;;6206194;28;89245;-67
2022/11/27 03:29:51;;;;;;;5.05;4.57;;;20.60;89.90;;;;;;6182684;28;89267;-66
2022/11/27 03:32:55;;;;;;;5.05;4.47;;;20.50;89.90;;;;;;6192590;28;90165;-66
2022/11/27 03:35:57;;;;;;;5.10;4.60;;;20.50;89.90;;;;;;6194604;28;89067;-66
2022/11/27 03:38:59;;;;;;;5.00;4.50;;;20.50;89.90;;;;;;6194870;28;89235;-66
2022/11/27 03:42:11;;;;;;;5.88;4.80;;;20.50;89.90;;;;;;6200367;28;88004;-66
2022/11/27 03:45:22;;;;;;;5.55;4.63;;;20.50;89.90;;;;;;6181438;28;89249;-66
2022/11/27 03:48:33;;;;;;;7.38;5.28;;;20.50;90.00;;;;;;6182947;28;89094;-67
2022/11/27 03:51:42;;;;;;;5.25;4.75;;;20.50;90.00;;;;;;6196354;28;89032;-67
2022/11/27 03:54:54;;;;;;;5.22;4.63;;;20.50;90.00;;;;;;6199211;28;87329;-66
2022/11/27 03:58:00;;;;;;;4.70;4.20;;;20.40;89.90;;;;;;6195037;28;88206;-66
2022/11/27 04:01:05;;;;;;;4.88;4.38;;;20.40;89.90;;;;;;6199006;28;89319;-66
2022/11/27 04:04:09;;;;;;;4.90;4.40;;;20.50;90.00;;;;;;6191363;28;90346;-66
2022/11/27 04:07:17;;;;;;;4.90;4.40;;;20.50;89.90;;;;;;6200489;28;89461;-66
2022/11/27 04:10:19;;;;;;;5.88;4.72;;;20.50;89.90;;;;;;6200201;28;89055;-67
2022/11/27 04:13:21;;;;;;;4.80;4.30;;;20.50;89.90;;;;;;6203171;28;89145;-66
2022/11/27 04:16:23;;;;;;;5.53;4.70;;;20.40;89.70;;;;;;6216644;28;89513;-66
2022/11/27 04:19:27;;;;;;;5.80;4.65;;;20.50;89.70;;;;;;6203288;28;89378;-66
2022/11/27 04:22:29;;;;;;;5.25;4.20;;;20.50;89.70;;;;;;6194344;28;89314;-66
2022/11/27 04:25:31;;;;;;;4.80;4.30;;;20.50;89.70;;;;;;6199266;28;88450;-66
2022/11/27 04:28:33;;;;;;;4.40;4.00;;;20.50;89.70;;;;;;6208777;28;89319;-66
2022/11/27 04:31:35;;;;;;;4.85;4.10;;;20.50;89.60;;;;;;6199549;28;89366;-66
2022/11/27 04:34:38;;;;;;;4.57;4.18;;;20.50;89.50;;;;;;6204821;28;90396;-67
2022/11/27 04:37:40;;;;;;;4.35;3.95;;;20.50;89.50;;;;;;6183825;28;89296;-66
2022/11/27 04:40:42;;;;;;;4.25;3.85;;;20.60;89.50;;;;;;6203233;28;90670;-66
2022/11/27 04:43:44;;;;;;;4.15;3.75;;;20.50;89.40;;;;;;6193173;28;88028;-66
2022/11/27 04:46:46;;;;;;;4.47;4.07;;;20.50;89.40;;;;;;6192068;28;89176;-66
2022/11/27 04:49:49;;;;;;;4.20;3.80;;;20.50;89.40;;;;;;6206002;28;89185;-66
2022/11/27 04:52:51;;;;;;;4.15;3.75;;;20.60;89.30;;;;;;6192920;28;89224;-65
2022/11/27 04:55:53;;;;;;;4.00;3.70;;;20.60;89.30;;;;;;6203933;28;88703;-66
2022/11/27 04:58:55;;;;;;;4.45;3.72;;;20.60;89.30;;;;;;6189225;28;89249;-66
2022/11/27 05:01:58;;;;;;;4.40;4.00;;;20.70;89.40;;;;;;6191040;28;89195;-66
2022/11/27 05:05:01;;;;;;;3.72;3.35;;;20.70;89.30;;;;;;6204877;28;89943;-66
2022/11/27 05:08:03;;;;;;;3.90;3.50;;;20.70;89.20;;;;;;6203010;28;88164;-66
2022/11/27 05:11:07;;;;;;;3.80;3.45;;;20.70;89.20;;;;;;6188247;28;89266;-66
2022/11/27 05:14:15;;;;;;;4.03;3.63;;;20.70;89.10;;;;;;6176407;28;89176;-66
2022/11/27 05:17:17;;;;;;;3.90;3.40;;;20.70;89.00;;;;;;6197588;28;91519;-66
2022/11/27 05:20:21;;;;;;;3.80;3.40;;;20.80;89.00;;;;;;6203299;28;89483;-66
2022/11/27 05:23:23;;;;;;;4.00;3.63;;;20.80;89.10;;;;;;6203270;28;88133;-66
2022/11/27 05:26:25;;;;;;;3.83;3.40;;;20.80;89.00;;;;;;6205532;28;88308;-66
2022/11/27 05:29:27;;;;;;;3.95;3.45;;;20.80;89.00;;;;;;6199733;28;89117;-66
2022/11/27 05:32:29;;;;;;;3.70;3.40;;;20.80;88.90;;;;;;6193623;28;89163;-66
2022/11/27 05:35:32;;;;;;;3.47;3.17;;;20.80;88.90;;;;;;6204980;28;90128;-66
2022/11/27 05:38:34;;;;;;;3.47;3.17;;;20.80;88.80;;;;;;6195726;28;90572;-66
2022/11/27 05:41:38;;;;;;;3.60;3.30;;;20.80;88.80;;;;;;6193237;28;88111;-66
2022/11/27 05:44:40;;;;;;;3.90;3.50;;;20.90;88.90;;;;;;6201114;28;89193;-66
2022/11/27 05:47:42;;;;;;;3.47;3.17;;;20.90;88.80;;;;;;6185899;28;89643;-66
2022/11/27 05:50:46;;;;;;;3.47;3.17;;;20.90;88.80;;;;;;6201393;28;89280;-66
2022/11/27 05:53:48;;;;;;;3.88;3.47;;;20.90;88.80;;;;;;6186594;28;89272;-66
2022/11/27 05:56:50;;;;;;;3.10;2.80;;;20.90;88.70;;;;;;6206254;28;88760;-66
2022/11/27 05:59:52;;;;;;;4.03;3.40;;;20.90;88.70;;;;;;6204591;28;88018;-65
2022/11/27 06:02:55;;;;;;;3.65;3.28;;;20.90;88.70;;;;;;6208510;28;89159;-66
2022/11/27 06:05:58;;;;;;;3.40;3.10;;;20.90;88.60;;;;;;6195849;28;89040;-66
2022/11/27 06:09:00;;;;;;;3.35;3.05;;;21.00;88.70;;;;;;6208112;28;89113;-66
2022/11/27 06:12:02;;;;;;;3.53;3.22;;;21.00;88.70;;;;;;6209185;28;88996;-67
2022/11/27 06:15:05;;;;;;;3.38;3.08;;;21.00;88.50;;;;;;6205452;28;89501;-66
2022/11/27 06:18:07;;;;;;;3.42;3.13;;;21.00;88.50;;;;;;6195257;28;89220;-66
2022/11/27 06:21:13;;;;;;;3.28;2.97;;;21.00;88.50;;;;;;6206727;28;88172;-66
2022/11/27 06:24:15;;;;;;;3.75;3.45;;;21.00;88.40;;;;;;6207519;28;89351;-66
2022/11/27 06:27:17;;;;;;;4.35;3.30;;;21.00;88.40;;;;;;6206790;28;88720;-66
2022/11/27 06:30:19;;;;;;;3.85;3.50;;;21.00;88.30;;;;;;6197709;28;89338;-66
2022/11/27 06:33:21;;;;;;;3.38;3.08;;;21.00;88.30;;;;;;6198308;28;88174;-66
2022/11/27 06:36:28;;;;;;;3.05;2.75;;;21.10;88.30;;;;;;6196708;28;90135;-66
2022/11/27 06:39:30;;;;;;;3.53;2.95;;;21.10;88.20;;;;;;6192348;28;89244;-66
2022/11/27 06:42:32;;;;;;;3.47;3.03;;;21.10;88.20;;;;;;6195087;28;89203;-66
2022/11/27 06:45:34;;;;;;;3.05;2.75;;;21.10;88.20;;;;;;6202771;28;89310;-66
2022/11/27 06:48:36;;;;;;;3.20;2.90;;;21.10;88.10;;;;;;6201188;28;88980;-66
2022/11/27 06:51:39;;;;;;;3.10;2.80;;;21.10;88.10;;;;;;6200993;28;89283;-66
2022/11/27 06:54:41;;;;;;;2.70;2.50;;;21.10;88.10;;;;;;6199614;28;89288;-66
2022/11/27 06:57:43;;;;;;;3.05;2.75;;;21.10;88.20;;;;;;6205920;28;88509;-66
2022/11/27 07:00:45;;;;;;;6.53;4.07;;;21.10;88.10;;;;;;6207614;28;89103;-66
2022/11/27 07:03:47;;;;;;;3.30;2.97;;;21.10;88.00;;;;;;6207235;28;89160;-66
2022/11/27 07:06:53;;;;;;;3.42;3.05;;;21.10;88.00;;;;;;6195723;28;89980;-66
2022/11/27 07:09:56;;;;;;;3.17;2.88;;;21.10;88.00;;;;;;6207838;28;88036;-66
2022/11/27 07:12:58;;;;;;;3.00;2.70;;;21.20;88.00;;;;;;6194791;28;89334;-66
2022/11/27 07:16:01;;;;;;;3.10;2.80;;;21.20;88.00;;;;;;6200026;28;89314;-66
2022/11/27 07:19:05;;;;;;;3.00;2.70;;;21.20;88.00;;;;;;6203053;28;89467;-66
2022/11/27 07:22:08;;;;;;;3.05;2.75;;;21.20;88.00;;;;;;6193811;28;89164;-66
2022/11/27 07:25:10;;;;;;;3.42;3.13;;;21.10;88.00;;;;;;6196415;28;89466;-66
2022/11/27 07:28:12;;;;;;;2.92;2.63;;;21.20;88.00;;;;;;6197068;28;88455;-66
2022/11/27 07:31:17;;;;;;;3.20;2.90;;;21.20;87.90;;;;;;6196260;28;89246;-66
2022/11/27 07:34:20;;;;;;;3.13;2.83;;;21.20;87.90;;;;;;6206245;28;89311;-65
2022/11/27 07:37:23;;;;;;;3.10;2.80;;;21.20;87.90;;;;;;6205173;28;88973;-66
2022/11/27 07:40:25;;;;;;;3.20;2.85;;;21.20;88.00;;;;;;6205935;28;88232;-66
2022/11/27 07:43:27;;;;;;;3.03;2.50;;;21.20;87.90;;;;;;6205839;28;89459;-66
2022/11/27 07:46:30;;;;;;;2.85;2.53;;;21.20;87.80;;;;;;6207067;28;89102;-66
2022/11/27 07:49:32;;;;;;;2.85;2.50;;;21.20;87.80;;;;;;6208057;28;89450;-66
2022/11/27 07:52:36;;;;;;;4.35;3.00;;;21.20;87.80;;;;;;6192868;28;88921;-66
2022/11/27 07:55:38;;;;;;;3.13;2.63;;;21.20;87.80;;;;;;6203766;28;90259;-66
2022/11/27 07:58:41;;;;;;;3.30;2.97;;;21.20;87.80;;;;;;6197301;28;88410;-66
2022/11/27 08:01:43;;;;;;;2.90;2.60;;;21.20;87.80;;;;;;6199192;28;89198;-66
2022/11/27 08:04:45;;;;;;;4.13;3.00;;;21.30;87.90;;;;;;6192806;28;89238;-66
2022/11/27 08:07:49;;;;;;;3.38;2.80;;;21.20;87.80;;;;;;6205880;28;89973;-66
2022/11/27 08:10:51;;;;;;;2.88;2.58;;;21.20;87.80;;;;;;6194597;28;88007;-66
2022/11/27 08:13:57;;;;;;;3.17;2.88;;;21.30;87.80;;;;;;6193427;28;90169;-66
2022/11/27 08:16:59;;;;;;;2.83;2.60;;;21.30;87.80;;;;;;6206013;28;89396;-66
2022/11/27 08:20:01;;;;;;;2.70;2.50;;;21.30;87.80;;;;;;6198934;28;89673;-66
2022/11/27 08:23:04;;;;;;;2.70;2.50;;;21.30;87.80;;;;;;6182412;28;89252;-66
2022/11/27 08:26:07;;;;;;;2.92;2.58;;;21.30;87.80;;;;;;6201863;28;89589;-66
2022/11/27 08:29:11;;;;;;;3.00;2.70;;;21.30;87.70;;;;;;6193504;28;88627;-66
2022/11/27 08:32:13;;;;;;;3.33;2.85;;;21.30;87.70;;;;;;6194910;28;89148;-66
2022/11/27 08:35:15;;;;;;;4.60;3.03;;;21.30;87.80;;;;;;6192266;28;89402;-66
2022/11/27 08:38:19;;;;;;;3.35;2.90;;;21.30;87.70;;;;;;6192756;28;90144;-66
2022/11/27 08:41:21;;;;;;;2.90;2.60;;;21.30;87.60;;;;;;6207857;28;89150;-66
2022/11/27 08:44:23;;;;;;;3.03;2.72;;;21.30;87.60;;;;;;6193673;28;89456;-66
2022/11/27 08:47:25;;;;;;;2.80;2.60;;;21.30;87.50;;;;;;6194517;28;89246;-66
2022/11/27 08:50:27;;;;;;;2.60;2.40;;;21.30;87.60;;;;;;6202500;28;89726;-66
2022/11/27 08:53:31;;;;;;;3.30;3.00;;;21.30;87.60;;;;;;6193934;28;89976;-66
2022/11/27 08:56:33;;;;;;;3.78;3.03;;;21.40;87.60;;;;;;6195411;28;89169;-66
2022/11/27 08:59:35;;;;;;;3.13;2.65;;;21.40;87.60;;;;;;6205194;28;88316;-66
2022/11/27 09:02:37;;;;;;;3.88;3.05;;;21.30;87.50;;;;;;6196919;28;89330;-66
2022/11/27 09:05:43;;;;;;;3.92;2.90;;;21.30;87.50;;;;;;6203136;28;89050;-65
2022/11/27 09:08:47;;;;;;;4.10;2.58;;;21.40;87.90;;;;;;6202482;28;90167;-66
2022/11/27 09:11:49;;;;;;;3.17;2.85;;;21.40;87.90;;;;;;6198635;28;89128;-66
2022/11/27 09:14:51;;;;;;;3.92;2.67;;;21.40;87.90;;;;;;6197944;28;88127;-66
2022/11/27 09:17:53;;;;;;;3.90;2.72;;;21.40;88.00;;;;;;6199086;28;88222;-66
2022/11/27 09:20:57;;;;;;;3.72;2.60;;;21.40;88.30;;;;;;6196868;28;89178;-66
2022/11/27 09:24:01;;;;;;;6.90;3.17;;;21.40;88.30;;;;;;6200163;28;89304;-66
2022/11/27 09:27:03;;;;;;;5.00;3.00;;;21.40;88.40;;;;;;6200336;28;89629;-66
2022/11/27 09:30:08;;;;;;;6.22;3.13;;;21.40;88.30;;;;;;6202750;28;88531;-65
2022/11/27 09:33:10;;;;;;;4.15;3.10;;;21.40;88.40;;;;;;6206417;28;89122;-65
2022/11/27 09:36:13;;;;;;;6.25;2.90;;;21.40;88.40;;;;;;6203281;28;89386;-65
2022/11/27 09:39:18;;;;;;;4.97;2.88;;;21.40;88.40;;;;;;6205610;28;89107;-65
2022/11/27 09:42:35;;;;;;;4.72;2.60;;;21.40;88.40;;;;;;6203140;28;89244;-68
2022/11/27 09:45:44;;;;;;;5.40;2.90;;;21.40;88.30;;;;;;6209017;28;87853;-68
2022/11/27 09:48:50;;;;;;;3.20;2.75;;;21.40;88.40;;;;;;6203006;28;89496;-67
2022/11/27 09:51:57;;;;;;;4.35;2.80;;;21.40;88.40;;;;;;6204115;28;89284;-67
2022/11/27 09:55:05;;;;;;;4.47;2.75;;;21.40;88.40;;;;;;6192724;28;89158;-67
2022/11/27 09:58:14;;;;;;;3.22;2.70;;;21.40;88.40;;;;;;6200163;28;88904;-67
2022/11/27 10:01:18;;;;;;;3.45;2.60;;;21.50;88.50;;;;;;6203970;28;88537;-68
2022/11/27 10:04:21;;;;;;;4.57;2.80;;;21.40;88.40;;;;;;6196660;28;89076;-68
2022/11/27 10:07:33;;;;;;;4.03;2.58;;;21.40;88.50;;;;;;6200447;28;89383;-68
2022/11/27 10:10:45;;;;;;;2.80;2.50;;;21.50;88.50;;;;;;6204258;28;89967;-68
2022/11/27 10:14:01;;;;;;;3.47;2.90;;;21.50;88.40;;;;;;6202816;28;89119;-67
2022/11/27 10:17:09;;;;;;;3.35;2.72;;;21.50;88.40;;;;;;6189845;28;89233;-68
2022/11/27 10:20:27;;;;;;;4.63;2.53;;;21.50;88.40;;;;;;6206022;28;87970;-68
2022/11/27 10:23:41;;;;;;;5.40;2.67;;;21.50;88.50;;;;;;6203029;28;87995;-68
2022/11/27 10:26:48;;;;;;;4.75;2.85;;;21.50;88.40;;;;;;6201997;28;89745;-69
2022/11/27 10:29:53;;;;;;;4.28;2.90;;;21.50;88.40;;;;;;6199651;28;89188;-68
2022/11/27 10:32:57;;;;;;;3.20;2.55;;;21.50;89.20;;;;;;6203048;28;88522;-68
2022/11/27 10:36:00;;;;;;;6.15;2.60;;;21.60;88.40;;;;;;6204755;28;89264;-68
2022/11/27 10:39:04;;;;;;;4.55;2.58;;;21.50;88.30;;;;;;6202592;28;89381;-68
2022/11/27 10:42:12;;;;;;;5.97;2.70;;;21.50;88.40;;;;;;6194074;28;90358;-68
2022/11/27 10:45:21;;;;;;;9.38;2.70;;;21.60;88.40;;;;;;6205448;28;89550;-67
2022/11/27 10:48:24;;;;;;;4.75;2.65;;;21.60;88.40;;;;;;6205562;28;88206;-68
2022/11/27 10:51:30;;;;;;;6.45;2.80;;;21.60;88.30;;;;;;6201095;28;89194;-68
2022/11/27 10:54:37;;;;;;;5.03;2.95;;;21.60;88.30;;;;;;6201477;28;89316;-68
2022/11/27 10:58:02;;;;;;;3.63;2.90;;;21.60;88.30;;;;;;6206241;28;89532;-68
2022/11/27 11:01:06;;;;;;;5.15;2.50;;;21.60;88.30;;;;;;6200843;28;89210;-67
2022/11/27 11:04:11;;;;;;;5.13;2.60;;;21.60;88.30;;;;;;6202440;28;88576;-68
2022/11/27 11:07:25;;;;;;;3.97;2.55;;;21.60;88.30;;;;;;6206651;28;89219;-68
2022/11/27 11:10:30;;;;;;;4.10;2.78;;;21.60;88.30;;;;;;6203320;28;88923;-68
2022/11/27 11:13:44;;;;;;;3.60;2.42;;;21.60;88.40;;;;;;6194638;28;88971;-68
2022/11/27 11:16:47;;;;;;;5.47;2.53;;;21.60;88.30;;;;;;6198556;28;88017;-68
2022/11/27 11:19:49;;;;;;;3.38;2.30;;;21.60;88.30;;;;;;6215223;28;89206;-68
2022/11/27 11:22:52;;;;;;;3.60;2.42;;;21.70;88.40;;;;;;6198641;28;89148;-67
2022/11/27 11:25:57;;;;;;;4.32;2.50;;;21.60;88.40;;;;;;6198436;28;89116;-66
2022/11/27 11:29:03;;;;;;;5.93;2.70;;;21.60;88.60;;;;;;6195796;28;89364;-67
2022/11/27 11:32:11;;;;;;;5.85;3.00;;;21.60;88.80;;;;;;6197986;28;89120;-68
2022/11/27 11:35:26;;;;;;;5.78;2.85;;;21.60;88.80;;;;;;6199791;28;88460;-67
2022/11/27 11:38:32;;;;;;;8.90;4.28;;;21.60;88.60;;;;;;6199059;28;89071;-70
2022/11/27 11:41:38;;;;;;;6.65;3.60;;;21.70;89.60;;;;;;6200826;28;88983;-70
2022/11/27 11:44:41;;;;;;;4.60;3.28;;;21.60;89.40;;;;;;6195787;28;88892;-69
2022/11/27 11:47:45;;;;;;;7.90;3.08;;;21.70;88.90;;;;;;6191217;28;89075;-69
2022/11/27 11:50:53;;;;;;;6.95;3.42;;;21.70;88.80;;;;;;6196428;28;89081;-70
2022/11/27 11:54:03;;;;;;;3.88;2.88;;;21.70;89.60;;;;;;6194677;28;89220;-69
2022/11/27 11:57:18;;;;;;;4.32;2.72;;;21.70;88.70;;;;;;6199182;28;89516;-69
2022/11/27 12:00:24;;;;;;;5.80;3.13;;;21.70;88.60;;;;;;6199036;28;89438;-69
2022/11/27 12:03:38;;;;;;;4.15;2.83;;;21.70;88.60;;;;;;6200398;28;89086;-70
2022/11/27 12:06:53;;;;;;;5.15;3.38;;;21.70;88.50;;;;;;6200960;28;88379;-70
2022/11/27 12:10:03;;;;;;;4.93;2.60;;;21.70;88.60;;;;;;6200422;28;89473;-70
2022/11/27 12:13:17;;;;;;;4.35;2.88;;;21.70;88.40;;;;;;6197489;28;87740;-70
2022/11/27 12:16:29;;;;;;;4.78;2.80;;;21.70;88.40;;;;;;6199787;28;89303;-71
2022/11/27 12:19:56;;;;;;;5.78;2.60;;;21.70;88.40;;;;;;6199677;28;89870;-71
2022/11/27 12:23:43;;;;;;;3.88;2.40;;;21.80;88.60;;;;;;6189112;28;88057;-70
2022/11/27 12:27:00;;;;;;;4.47;2.75;;;21.80;88.40;;;;;;6191831;28;87744;-71
2022/11/27 12:30:15;;;;;;;6.15;2.65;;;21.80;88.40;;;;;;6187818;28;89320;-70
2022/11/27 12:33:42;;;;;;;5.47;2.80;;;21.80;88.30;;;;;;6193655;28;89194;-70
2022/11/27 12:37:06;;;;;;;4.60;2.53;;;21.80;88.20;;;;;;6191074;28;88047;-70
2022/11/27 12:40:23;;;;;;;4.40;2.80;;;21.70;88.10;;;;;;6188546;28;88754;-70
2022/11/27 12:43:26;;;;;;;6.22;2.80;;;21.80;88.10;;;;;;6190083;28;89339;-69
2022/11/27 12:46:36;;;;;;;4.00;2.50;;;21.80;88.10;;;;;;6194881;28;89279;-70
2022/11/27 12:49:45;;;;;;;5.00;2.67;;;21.80;88.30;;;;;;6205406;28;90876;-70
2022/11/27 12:52:56;;;;;;;7.22;2.80;;;21.80;88.30;;;;;;6189417;28;89076;-70
2022/11/27 12:56:06;;;;;;;4.93;2.53;;;21.80;88.30;;;;;;6193134;28;89318;-70
2022/11/27 12:59:14;;;;;;;3.65;2.22;;;21.80;88.30;;;;;;6196739;28;89197;-70
2022/11/27 13:02:26;;;;;;;4.13;2.20;;;21.80;88.20;;;;;;6181337;28;89225;-70
2022/11/27 13:05:34;;;;;;;3.80;2.38;;;21.80;88.20;;;;;;6182174;28;88093;-70
2022/11/27 13:08:45;;;;;;;5.32;2.50;;;21.80;88.10;;;;;;6194241;28;90219;-69
2022/11/27 13:11:48;;;;;;;3.05;2.15;;;21.80;88.10;;;;;;6205119;28;88565;-70
2022/11/27 13:14:58;;;;;;;3.33;2.40;;;21.80;88.10;;;;;;6196963;28;89322;-69
2022/11/27 13:18:06;;;;;;;4.80;2.40;;;21.80;88.10;;;;;;6194340;28;88093;-70
2022/11/27 13:21:14;;;;;;;3.58;2.50;;;21.80;88.00;;;;;;6181929;28;90899;-69
2022/11/27 13:24:17;;;;;;;3.17;2.05;;;21.80;88.00;;;;;;6184870;28;89220;-70
2022/11/27 13:27:23;;;;;;;4.28;2.33;;;21.70;87.90;;;;;;6205607;28;88325;-70
2022/11/27 13:30:27;;;;;;;5.25;2.90;;;21.80;87.90;;;;;;6189710;28;89759;-70
2022/11/27 13:33:37;;;;;;;5.53;2.95;;;21.80;87.90;;;;;;6197219;28;89169;-70
2022/11/27 13:36:43;;;;;;;6.97;2.70;;;21.80;87.90;;;;;;6191686;28;89287;-70
2022/11/27 13:39:45;;;;;;;3.70;2.30;;;21.80;87.90;;;;;;6206068;28;90326;-69
2022/11/27 13:42:52;;;;;;;2.92;2.22;;;21.80;87.70;;;;;;6193864;28;89219;-70
2022/11/27 13:46:02;;;;;;;5.00;2.40;;;21.80;87.70;;;;;;6205107;28;89053;-70
2022/11/27 13:49:06;;;;;;;3.75;2.30;;;21.80;87.70;;;;;;6195533;28;89254;-69
2022/11/27 13:52:12;;;;;;;5.60;2.33;;;21.80;87.70;;;;;;6198771;28;90416;-70
2022/11/27 13:55:24;;;;;;;4.75;2.58;;;21.80;87.60;;;;;;6205390;28;89216;-70
2022/11/27 13:58:32;;;;;;;5.60;2.45;;;21.80;87.70;;;;;;6199695;28;89110;-70
2022/11/27 14:01:37;;;;;;;5.28;2.88;;;21.70;87.60;;;;;;6193890;28;88944;-69
2022/11/27 14:04:49;;;;;;;3.75;2.55;;;21.70;87.60;;;;;;6185458;28;90233;-69
2022/11/27 14:07:54;;;;;;;3.45;2.50;;;21.80;87.60;;;;;;6181072;28;89213;-70
2022/11/27 14:11:00;;;;;;;3.60;2.30;;;21.80;87.60;;;;;;6193732;28;89199;-70
2022/11/27 14:14:12;;;;;;;2.72;2.15;;;21.80;87.60;;;;;;6194530;28;88522;-70
2022/11/27 14:17:26;;;;;;;4.45;2.45;;;21.80;87.60;;;;;;6209181;28;89447;-70
2022/11/27 14:20:32;;;;;;;3.47;2.17;;;21.70;87.50;;;;;;6186046;28;89071;-71
2022/11/27 14:23:48;;;;;;;3.92;2.53;;;21.80;87.50;;;;;;6209140;28;88924;-70
2022/11/27 14:26:51;;;;;;;3.03;2.35;;;21.80;87.50;;;;;;6198357;28;89160;-70
2022/11/27 14:29:54;;;;;;;3.25;2.35;;;21.80;87.50;;;;;;6197952;28;88222;-69
2022/11/27 14:32:58;;;;;;;2.40;2.13;;;21.80;87.50;;;;;;6206067;28;89052;-70
2022/11/27 14:36:02;;;;;;;2.60;2.08;;;21.70;87.40;;;;;;6209042;28;88248;-70
2022/11/27 14:39:05;;;;;;;2.65;2.03;;;21.80;87.50;;;;;;6200976;28;89120;-70
2022/11/27 14:42:20;;;;;;;2.30;2.10;;;21.80;87.50;;;;;;6201810;28;89062;-69
2022/11/27 14:45:22;;;;;;;2.65;2.10;;;21.80;87.50;;;;;;6208239;28;87383;-70
2022/11/27 14:48:34;;;;;;;2.72;2.20;;;21.80;87.50;;;;;;6208205;28;88183;-70
2022/11/27 14:51:37;;;;;;;2.75;2.00;;;21.80;87.50;;;;;;6200493;28;89149;-71
2022/11/27 14:54:41;;;;;;;3.35;2.45;;;21.80;87.50;;;;;;6199062;28;90015;-70
2022/11/27 14:57:45;;;;;;;3.35;2.00;;;21.80;87.50;;;;;;6198139;28;88146;-70
2022/11/27 15:00:58;;;;;;;2.42;2.20;;;21.80;87.50;;;;;;6198455;28;89301;-70
2022/11/27 15:04:02;;;;;;;2.40;2.05;;;21.80;87.50;;;;;;6193418;28;89271;-70
2022/11/27 15:07:07;;;;;;;2.33;2.10;;;21.70;87.40;;;;;;6201437;28;89210;-70
2022/11/27 15:10:22;;;;;;;2.10;1.90;;;21.80;87.40;;;;;;6189454;28;89283;-69
2022/11/27 15:13:27;;;;;;;2.38;2.00;;;21.80;87.50;;;;;;6201992;28;89110;-71
2022/11/27 15:16:31;;;;;;;7.07;2.13;;;21.80;87.50;;;;;;6201683;28;88715;-70
2022/11/27 15:19:37;;;;;;;2.58;2.03;;;21.80;87.40;;;;;;6207718;28;89498;-70
2022/11/27 15:22:39;;;;;;;2.33;2.00;;;21.80;87.40;;;;;;6206395;28;89735;-70
2022/11/27 15:25:44;;;;;;;2.72;2.13;;;21.80;87.50;;;;;;6190568;28;90116;-71
2022/11/27 15:28:51;;;;;;;3.30;2.50;;;21.80;87.50;;;;;;6197509;28;90081;-70
2022/11/27 15:31:54;;;;;;;3.13;2.50;;;21.80;87.40;;;;;;6207295;28;89072;-71
2022/11/27 15:34:56;;;;;;;3.70;2.20;;;21.70;87.40;;;;;;6208020;28;89006;-71
2022/11/27 15:38:03;;;;;;;2.95;2.00;;;21.70;87.40;;;;;;6195150;28;91976;-69
2022/11/27 15:41:18;;;;;;;2.10;1.90;;;21.70;87.40;;;;;;6206584;28;89238;-71
2022/11/27 15:44:22;;;;;;;2.28;2.00;;;21.80;87.40;;;;;;6183490;28;89142;-71
2022/11/27 15:47:29;;;;;;;2.35;2.05;;;21.70;87.40;;;;;;6206269;28;88221;-70
2022/11/27 15:50:32;;;;;;;2.50;2.17;;;21.80;87.40;;;;;;6207511;28;89828;-70
2022/11/27 15:53:34;;;;;;;2.20;2.00;;;21.80;87.40;;;;;;6194807;28;88992;-70
2022/11/27 15:56:38;;;;;;;2.25;2.05;;;21.70;87.30;;;;;;6188811;28;90190;-71
2022/11/27 15:59:40;;;;;;;2.47;2.28;;;21.80;87.40;;;;;;6201277;28;89080;-71
2022/11/27 16:02:42;;;;;;;2.95;2.20;;;21.80;87.40;;;;;;6197110;28;89206;-71
2022/11/27 16:05:44;;;;;;;2.55;2.22;;;21.80;87.40;;;;;;6207563;28;88263;-71
2022/11/27 16:08:47;;;;;;;2.75;2.30;;;21.80;87.40;;;;;;6191468;28;89130;-70